Time;durP1;ratioP1;P1;durP2;ratioP2;P2;SDS_P1;SDS_P2;PMS_P1;PMS_P2;Temp;Humidity;BMP_temperature;BMP_pressure;BME280_temperature;BME280_humidity;BME280_pressure;Samples;Min_cycle;Max_cycle;Signal;HPM_P1;HPM_P2
2024/04/19 00:03:24;;;;;;;2.63;1.38;;;;;;;;;;10960727;26;20084;-60
2024/04/19 00:08:25;;;;;;;3.05;1.35;;;;;;;;;;10946393;26;20033;-50
2024/04/19 00:13:26;;;;;;;2.42;1.27;;;;;;;;;;10943713;26;20001;-51
2024/04/19 00:18:28;;;;;;;4.35;1.88;;;;;;;;;;10954005;26;20082;-52
2024/04/19 00:23:29;;;;;;;2.67;1.35;;;;;;;;;;10957914;26;20006;-50
2024/04/19 00:28:30;;;;;;;2.35;1.38;;;;;;;;;;10922282;26;20006;-52
2024/04/19 00:33:31;;;;;;;2.20;1.20;;;;;;;;;;10967735;26;20097;-53
2024/04/19 00:38:33;;;;;;;2.65;1.30;;;;;;;;;;10975928;26;20087;-60
2024/04/19 00:43:34;;;;;;;7.38;1.20;;;;;;;;;;10964478;26;20010;-60
2024/04/19 00:48:37;;;;;;;3.25;1.38;;;;;;;;;;10944898;26;20106;-54
2024/04/19 00:53:38;;;;;;;4.05;1.30;;;;;;;;;;10909030;26;20001;-50
2024/04/19 00:58:39;;;;;;;2.88;1.30;;;;;;;;;;10964610;26;20235;-51
2024/04/19 01:03:40;;;;;;;3.83;1.38;;;;;;;;;;10927110;26;20354;-48
2024/04/19 01:08:41;;;;;;;2.40;1.30;;;;;;;;;;10940278;26;20100;-65
2024/04/19 01:13:43;;;;;;;5.97;1.30;;;;;;;;;;10959720;26;20331;-67
2024/04/19 01:18:45;;;;;;;1.50;1.08;;;;;;;;;;10914077;26;20533;-50
2024/04/19 01:23:46;;;;;;;2.50;1.17;;;;;;;;;;10950785;26;20005;-52
2024/04/19 01:28:47;;;;;;;1.63;1.15;;;;;;;;;;10979207;26;20167;-49
2024/04/19 01:33:49;;;;;;;2.63;1.30;;;;;;;;;;10959353;26;20006;-53
2024/04/19 01:38:50;;;;;;;2.85;1.40;;;;;;;;;;10935079;26;20075;-52
2024/04/19 01:43:51;;;;;;;3.60;1.27;;;;;;;;;;10960638;26;20008;-49
2024/04/19 01:48:53;;;;;;;2.25;1.20;;;;;;;;;;10928980;26;20075;-50
2024/04/19 01:53:54;;;;;;;1.52;1.25;;;;;;;;;;10967283;26;20322;-48
2024/04/19 01:58:55;;;;;;;4.18;1.33;;;;;;;;;;10943369;26;20033;-48
2024/04/19 02:03:56;;;;;;;3.13;1.42;;;;;;;;;;10941287;26;20076;-51
2024/04/19 02:08:57;;;;;;;0.85;0.80;;;;;;;;;;10952153;26;20311;-53
2024/04/19 02:13:58;;;;;;;1.42;0.88;;;;;;;;;;10973066;26;20445;-48
2024/04/19 02:18:59;;;;;;;1.45;1.02;;;;;;;;;;10946354;26;20097;-52
2024/04/19 02:24:03;;;;;;;1.58;1.00;;;;;;;;;;10946862;26;20030;-49
2024/04/19 02:34:27;;;;;;;1.08;0.75;;;;;;;;;;10962516;26;20013;-52
2024/04/19 02:39:28;;;;;;;4.28;1.35;;;;;;;;;;10958414;26;20002;-49
2024/04/19 02:44:29;;;;;;;2.50;1.08;;;;;;;;;;10969133;26;20528;-52
2024/04/19 02:49:31;;;;;;;3.42;1.40;;;;;;;;;;10958212;26;20185;-53
2024/04/19 02:54:32;;;;;;;2.05;1.27;;;;;;;;;;10962205;26;20002;-53
2024/04/19 02:59:33;;;;;;;1.58;1.00;;;;;;;;;;10959439;26;20105;-52
2024/04/19 03:04:38;;;;;;;2.47;1.17;;;;;;;;;;10950155;26;20002;-51
2024/04/19 03:09:39;;;;;;;4.35;1.10;;;;;;;;;;10953919;26;20021;-51
2024/04/19 03:14:41;;;;;;;3.47;1.15;;;;;;;;;;10954399;26;20006;-49
2024/04/19 03:19:42;;;;;;;1.40;1.00;;;;;;;;;;10958001;26;20075;-50
2024/04/19 03:24:43;;;;;;;3.30;1.00;;;;;;;;;;10934848;26;20336;-53
2024/04/19 03:29:55;;;;;;;1.90;1.02;;;;;;;;;;10952773;26;20014;-53
2024/04/19 03:34:56;;;;;;;1.90;1.13;;;;;;;;;;10957600;26;20329;-51
2024/04/19 03:39:57;;;;;;;1.60;1.10;;;;;;;;;;10951343;26;20046;-50
2024/04/19 03:50:18;;;;;;;3.17;1.02;;;;;;;;;;10948011;26;20002;-55
2024/04/19 03:55:19;;;;;;;1.40;1.20;;;;;;;;;;10945949;26;20400;-52
2024/04/19 04:00:21;;;;;;;5.00;1.10;;;;;;;;;;10974860;26;20325;-49
2024/04/19 04:05:22;;;;;;;1.58;1.05;;;;;;;;;;10962982;26;20093;-49
2024/04/19 04:10:23;;;;;;;1.77;1.10;;;;;;;;;;10930904;26;20038;-51
2024/04/19 04:15:24;;;;;;;2.80;1.00;;;;;;;;;;10959681;26;20021;-54
2024/04/19 04:20:25;;;;;;;1.27;1.02;;;;;;;;;;10950291;26;20003;-53
2024/04/19 04:25:27;;;;;;;0.80;0.80;;;;;;;;;;10953286;26;20320;-53
2024/04/19 04:30:28;;;;;;;1.00;0.90;;;;;;;;;;10962633;26;20045;-53
2024/04/19 04:35:29;;;;;;;1.08;0.93;;;;;;;;;;10963742;26;20101;-52
2024/04/19 04:40:32;;;;;;;3.17;1.10;;;;;;;;;;10983239;26;20030;-51
2024/04/19 04:45:33;;;;;;;1.23;0.93;;;;;;;;;;10973678;26;20283;-53
2024/04/19 04:50:34;;;;;;;0.93;0.90;;;;;;;;;;10954954;26;20109;-52
2024/04/19 04:55:35;;;;;;;2.58;0.90;;;;;;;;;;10940667;26;20441;-50
2024/04/19 05:00:37;;;;;;;1.52;0.90;;;;;;;;;;10946599;26;19998;-49
2024/04/19 05:05:39;;;;;;;2.00;1.27;;;;;;;;;;10942728;26;20012;-59
2024/04/19 05:10:40;;;;;;;0.70;0.70;;;;;;;;;;10946890;26;20005;-55
2024/04/19 05:15:41;;;;;;;1.95;1.00;;;;;;;;;;10965371;26;20056;-65
2024/04/19 05:20:42;;;;;;;1.15;1.05;;;;;;;;;;10934022;26;20025;-65
2024/04/19 05:25:45;;;;;;;0.90;0.90;;;;;;;;;;10951256;26;20006;-61
2024/04/19 05:30:46;;;;;;;2.35;1.00;;;;;;;;;;10968902;26;20019;-58
2024/04/19 05:35:47;;;;;;;2.75;1.13;;;;;;;;;;10951439;26;20146;-62
2024/04/19 05:40:48;;;;;;;9.07;2.17;;;;;;;;;;10946546;26;20001;-68
2024/04/19 05:45:50;;;;;;;13.90;1.75;;;;;;;;;;10943918;26;20400;-63
2024/04/19 05:50:51;;;;;;;2.67;1.25;;;;;;;;;;10938134;26;20200;-66
2024/04/19 05:55:52;;;;;;;8.40;1.50;;;;;;;;;;10957381;26;20374;-64
2024/04/19 06:00:53;;;;;;;13.00;1.33;;;;;;;;;;10924856;26;20085;-62
2024/04/19 06:05:54;;;;;;;6.45;1.80;;;;;;;;;;10933085;26;20125;-64
2024/04/19 06:10:55;;;;;;;11.02;1.90;;;;;;;;;;10964628;26;20002;-62
2024/04/19 06:15:56;;;;;;;6.85;1.60;;;;;;;;;;10973201;26;20507;-65
2024/04/19 06:20:57;;;;;;;9.05;2.00;;;;;;;;;;10933067;26;20013;-58
2024/04/19 06:26:06;;;;;;;8.80;1.70;;;;;;;;;;10964963;26;20441;-53
2024/04/19 06:31:09;;;;;;;14.65;1.70;;;;;;;;;;10955667;26;20449;-49
2024/04/19 06:36:10;;;;;;;8.48;1.77;;;;;;;;;;10954945;26;20371;-58
2024/04/19 06:41:11;;;;;;;15.55;2.70;;;;;;;;;;10930529;26;20106;-64
2024/04/19 06:46:13;;;;;;;8.63;1.83;;;;;;;;;;10936419;26;20002;-64
2024/04/19 06:51:14;;;;;;;5.28;2.20;;;;;;;;;;10977219;26;20019;-59
2024/04/19 06:56:16;;;;;;;3.50;1.48;;;;;;;;;;10975400;26;20001;-51
2024/04/19 07:01:17;;;;;;;9.57;1.70;;;;;;;;;;10972448;26;20418;-58
2024/04/19 07:06:18;;;;;;;7.57;1.60;;;;;;;;;;10964590;26;20342;-54
2024/04/19 07:11:19;;;;;;;4.18;1.65;;;;;;;;;;10975749;26;20033;-51
2024/04/19 07:16:20;;;;;;;10.00;1.95;;;;;;;;;;10977525;26;20544;-56
2024/04/19 07:21:21;;;;;;;6.85;1.85;;;;;;;;;;10964002;26;20032;-49
2024/04/19 07:26:22;;;;;;;6.43;1.80;;;;;;;;;;10953808;26;20033;-59
2024/04/19 07:31:24;;;;;;;10.77;1.58;;;;;;;;;;10957677;26;20005;-61
2024/04/19 07:36:25;;;;;;;5.28;1.70;;;;;;;;;;10978340;26;20026;-51
2024/04/19 07:41:27;;;;;;;9.30;1.67;;;;;;;;;;10957431;26;19998;-50
2024/04/19 07:46:28;;;;;;;5.22;1.52;;;;;;;;;;10960771;26;20025;-51
2024/04/19 07:51:29;;;;;;;3.58;1.55;;;;;;;;;;10960192;26;20087;-54
2024/04/19 07:56:32;;;;;;;7.85;1.88;;;;;;;;;;10939875;26;20001;-53
2024/04/19 08:01:34;;;;;;;5.93;1.77;;;;;;;;;;10946847;26;20442;-60
2024/04/19 08:06:36;;;;;;;2.78;1.42;;;;;;;;;;10957927;26;20057;-52
2024/04/19 08:11:37;;;;;;;7.00;1.92;;;;;;;;;;10969826;26;20017;-50
2024/04/19 08:16:38;;;;;;;3.92;1.70;;;;;;;;;;10959343;26;20042;-50
2024/04/19 08:21:39;;;;;;;4.53;1.67;;;;;;;;;;10929801;26;20101;-58
2024/04/19 08:26:40;;;;;;;3.88;1.38;;;;;;;;;;10971300;26;20002;-48
2024/04/19 08:31:42;;;;;;;4.75;1.65;;;;;;;;;;10945907;26;20512;-50
2024/04/19 08:36:43;;;;;;;7.97;2.05;;;;;;;;;;10960469;26;20021;-51
2024/04/19 08:41:48;;;;;;;8.15;1.70;;;;;;;;;;10943326;26;20018;-60
2024/04/19 08:46:52;;;;;;;4.32;1.48;;;;;;;;;;10956281;26;20445;-56
2024/04/19 08:51:55;;;;;;;5.32;1.83;;;;;;;;;;10947724;26;20016;-53
2024/04/19 08:56:57;;;;;;;8.30;1.85;;;;;;;;;;10947453;26;20038;-61
2024/04/19 09:01:58;;;;;;;3.53;1.40;;;;;;;;;;10919699;26;20500;-59
2024/04/19 09:06:59;;;;;;;5.07;1.63;;;;;;;;;;10936172;26;20053;-52
2024/04/19 09:12:02;;;;;;;3.30;1.63;;;;;;;;;;10963097;26;20001;-50
2024/04/19 09:17:04;;;;;;;2.17;1.20;;;;;;;;;;10952566;26;20101;-59
2024/04/19 09:22:06;;;;;;;3.92;1.58;;;;;;;;;;10963953;26;20012;-51
2024/04/19 09:27:07;;;;;;;1.48;1.23;;;;;;;;;;10959231;26;20279;-55
2024/04/19 09:32:08;;;;;;;2.97;1.48;;;;;;;;;;10946900;26;20006;-60
2024/04/19 09:37:10;;;;;;;2.25;1.48;;;;;;;;;;10949446;26;20030;-62
2024/04/19 09:42:11;;;;;;;4.10;1.40;;;;;;;;;;10946788;26;20001;-59
2024/04/19 09:47:14;;;;;;;1.83;1.35;;;;;;;;;;10963701;26;20017;-50
2024/04/19 09:52:22;;;;;;;6.97;1.33;;;;;;;;;;10926831;26;20002;-52
2024/04/19 09:57:26;;;;;;;1.02;1.02;;;;;;;;;;10927429;26;20021;-56
2024/04/19 10:02:27;;;;;;;1.63;1.20;;;;;;;;;;10903644;26;20041;-61
2024/04/19 10:07:30;;;;;;;2.53;1.17;;;;;;;;;;10959887;26;20406;-57
2024/04/19 10:12:33;;;;;;;3.28;1.45;;;;;;;;;;10933841;26;20018;-55
2024/04/19 10:17:35;;;;;;;2.80;1.40;;;;;;;;;;10924276;26;20030;-49
2024/04/19 10:22:42;;;;;;;2.03;1.08;;;;;;;;;;10938232;26;20075;-51
2024/04/19 10:27:46;;;;;;;6.00;1.30;;;;;;;;;;10957294;26;20458;-61
2024/04/19 10:32:54;;;;;;;2.83;1.10;;;;;;;;;;10961597;26;20013;-61
2024/04/19 10:37:57;;;;;;;2.13;1.05;;;;;;;;;;10961756;26;20001;-58
2024/04/19 10:43:08;;;;;;;4.32;1.20;;;;;;;;;;10957356;26;20024;-52
2024/04/19 10:48:09;;;;;;;2.20;1.50;;;;;;;;;;10960621;26;20120;-57
2024/04/19 10:53:10;;;;;;;1.65;1.30;;;;;;;;;;10950545;26;20077;-57
2024/04/19 10:58:13;;;;;;;3.35;1.40;;;;;;;;;;10941027;26;20006;-52
2024/04/19 11:03:14;;;;;;;3.92;1.08;;;;;;;;;;10974117;26;20084;-53
2024/04/19 11:08:16;;;;;;;2.08;1.35;;;;;;;;;;10952041;26;20584;-49
2024/04/19 11:13:17;;;;;;;1.73;1.00;;;;;;;;;;10947839;26;20087;-50
2024/04/19 11:18:18;;;;;;;1.55;1.20;;;;;;;;;;10963014;26;20026;-51
2024/04/19 11:23:19;;;;;;;2.03;1.23;;;;;;;;;;10961737;26;20002;-60
2024/04/19 11:28:21;;;;;;;4.53;1.30;;;;;;;;;;10981254;26;20006;-53
2024/04/19 11:33:22;;;;;;;1.05;1.02;;;;;;;;;;10951517;26;20083;-59
2024/04/19 11:38:23;;;;;;;1.25;1.15;;;;;;;;;;10939020;26;20030;-50
2024/04/19 11:43:25;;;;;;;1.10;0.98;;;;;;;;;;10941022;26;20515;-54
2024/04/19 11:48:27;;;;;;;1.85;1.38;;;;;;;;;;10978628;26;20027;-51
2024/04/19 11:53:28;;;;;;;1.30;1.08;;;;;;;;;;10955748;26;20005;-63
2024/04/19 11:58:29;;;;;;;1.30;1.20;;;;;;;;;;10939313;26;20359;-58
2024/04/19 12:03:33;;;;;;;2.88;1.10;;;;;;;;;;10937526;26;20500;-55
2024/04/19 12:08:34;;;;;;;1.50;0.90;;;;;;;;;;10952339;26;20433;-51
2024/04/19 12:13:35;;;;;;;1.30;1.20;;;;;;;;;;10927958;26;20102;-53
2024/04/19 12:18:36;;;;;;;1.33;1.17;;;;;;;;;;10930354;26;20034;-54
2024/04/19 12:23:39;;;;;;;0.95;0.82;;;;;;;;;;10977746;26;20465;-64
2024/04/19 12:28:40;;;;;;;2.05;1.20;;;;;;;;;;10974916;26;20006;-55
2024/04/19 12:33:42;;;;;;;3.95;1.10;;;;;;;;;;10962681;26;20110;-62
2024/04/19 12:38:43;;;;;;;1.95;1.10;;;;;;;;;;10920856;26;20314;-61
2024/04/19 12:43:44;;;;;;;1.05;1.00;;;;;;;;;;10941115;26;20022;-51
2024/04/19 12:48:47;;;;;;;0.90;0.85;;;;;;;;;;10940846;26;20081;-62
2024/04/19 12:53:48;;;;;;;5.22;1.40;;;;;;;;;;10946726;26;20369;-52
2024/04/19 12:58:51;;;;;;;1.23;1.05;;;;;;;;;;10930286;26;20041;-47
2024/04/19 13:03:52;;;;;;;2.53;1.17;;;;;;;;;;10973954;26;20473;-57
2024/04/19 13:08:53;;;;;;;1.60;1.05;;;;;;;;;;10971165;26;20304;-56
2024/04/19 13:13:59;;;;;;;1.50;1.00;;;;;;;;;;10922710;26;20017;-50
2024/04/19 13:19:01;;;;;;;1.42;1.33;;;;;;;;;;10947457;26;20001;-59
2024/04/19 13:24:02;;;;;;;1.52;1.10;;;;;;;;;;10998853;21;20450;-59
2024/04/19 13:29:03;;;;;;;1.58;1.13;;;;;;;;;;11046910;26;20463;-59
2024/04/19 13:34:05;;;;;;;1.10;1.00;;;;;;;;;;11045318;26;20001;-59
2024/04/19 13:39:06;;;;;;;2.67;1.00;;;;;;;;;;10996036;26;20013;-59
2024/04/19 13:44:09;;;;;;;6.55;1.42;;;;;;;;;;10946406;26;20005;-59
2024/04/19 13:49:11;;;;;;;0.98;0.82;;;;;;;;;;10960962;26;20005;-59
2024/04/19 13:54:13;;;;;;;0.85;0.77;;;;;;;;;;10926805;26;20013;-59
2024/04/19 13:59:20;;;;;;;1.20;0.90;;;;;;;;;;10968301;26;20005;-58
2024/04/19 14:04:21;;;;;;;4.13;1.40;;;;;;;;;;10945057;26;19998;-58
2024/04/19 14:09:22;;;;;;;4.93;1.20;;;;;;;;;;10971161;26;20018;-58
2024/04/19 14:14:25;;;;;;;8.40;1.30;;;;;;;;;;10940627;26;20118;-58
2024/04/19 14:19:27;;;;;;;1.77;1.00;;;;;;;;;;10958816;26;20696;-58
2024/04/19 14:24:28;;;;;;;1.30;1.20;;;;;;;;;;10973030;27;20022;-58
2024/04/19 14:29:29;;;;;;;2.28;1.27;;;;;;;;;;10981837;26;20025;-58
2024/04/19 14:34:30;;;;;;;2.42;1.17;;;;;;;;;;10978385;26;20658;-58
2024/04/19 14:39:31;;;;;;;2.67;0.90;;;;;;;;;;10979393;26;20005;-58
2024/04/19 14:44:32;;;;;;;3.45;1.20;;;;;;;;;;10941947;27;20102;-59
2024/04/19 14:49:34;;;;;;;0.90;0.90;;;;;;;;;;10963828;26;20030;-59
2024/04/19 14:54:35;;;;;;;2.50;1.17;;;;;;;;;;10940487;26;20013;-58
2024/04/19 14:59:36;;;;;;;1.17;0.93;;;;;;;;;;10925905;26;20486;-59
2024/04/19 15:04:37;;;;;;;2.80;1.00;;;;;;;;;;10940588;26;20105;-59
2024/04/19 15:09:38;;;;;;;3.15;0.95;;;;;;;;;;10927330;27;20012;-59
2024/04/19 15:14:39;;;;;;;3.10;1.45;;;;;;;;;;10956593;26;20078;-59
2024/04/19 15:19:41;;;;;;;4.20;1.42;;;;;;;;;;10971437;26;20532;-58
2024/04/19 15:24:42;;;;;;;2.40;1.40;;;;;;;;;;10923318;26;20010;-59
2024/04/19 15:29:43;;;;;;;4.43;1.40;;;;;;;;;;10951304;26;20042;-59
2024/04/19 15:34:44;;;;;;;7.70;1.90;;;;;;;;;;10956231;26;20002;-58
2024/04/19 15:39:49;;;;;;;3.90;1.30;;;;;;;;;;10964472;26;20208;-59
2024/04/19 15:44:50;;;;;;;8.05;1.40;;;;;;;;;;10993853;26;20001;-58
2024/04/19 15:49:52;;;;;;;6.50;1.30;;;;;;;;;;11007662;26;20001;-58
2024/04/19 15:54:53;;;;;;;7.65;1.45;;;;;;;;;;10984731;27;20001;-58
2024/04/19 15:59:55;;;;;;;6.25;1.40;;;;;;;;;;10986799;26;20001;-58
2024/04/19 16:04:56;;;;;;;2.38;1.25;;;;;;;;;;11008939;26;20014;-58
2024/04/19 16:09:57;;;;;;;2.50;1.27;;;;;;;;;;10994208;26;20414;-58
2024/04/19 16:14:58;;;;;;;7.20;1.50;;;;;;;;;;11007903;26;20464;-59
2024/04/19 16:19:59;;;;;;;2.85;1.30;;;;;;;;;;10957538;26;20052;-59
2024/04/19 16:25:01;;;;;;;8.23;1.52;;;;;;;;;;10960066;26;20002;-59
2024/04/19 16:30:04;;;;;;;2.13;1.17;;;;;;;;;;10976240;26;20109;-59
2024/04/19 16:35:06;;;;;;;4.85;1.35;;;;;;;;;;10971518;26;20461;-58
2024/04/19 16:40:08;;;;;;;2.03;1.20;;;;;;;;;;10930941;26;20019;-58
2024/04/19 16:45:09;;;;;;;5.68;1.17;;;;;;;;;;10970771;26;20011;-57
2024/04/19 16:50:11;;;;;;;8.60;1.45;;;;;;;;;;10971558;26;19998;-59
2024/04/19 16:55:14;;;;;;;5.05;1.60;;;;;;;;;;10973517;26;20017;-58
2024/04/19 17:00:18;;;;;;;4.43;1.60;;;;;;;;;;10963556;26;20021;-58
2024/04/19 17:05:20;;;;;;;7.93;2.08;;;;;;;;;;11025054;26;20001;-59
2024/04/19 17:10:21;;;;;;;1.80;1.40;;;;;;;;;;10998393;26;20079;-58
2024/04/19 17:15:23;;;;;;;1.45;1.33;;;;;;;;;;10967749;26;20001;-58
2024/04/19 17:20:26;;;;;;;7.13;1.55;;;;;;;;;;10969221;26;20021;-59
2024/04/19 17:25:28;;;;;;;5.82;1.30;;;;;;;;;;10938270;26;20013;-59
2024/04/19 17:30:29;;;;;;;1.60;1.23;;;;;;;;;;10951164;26;20176;-59
2024/04/19 17:35:30;;;;;;;2.35;1.30;;;;;;;;;;10975073;26;20300;-59
2024/04/19 17:40:32;;;;;;;2.83;1.35;;;;;;;;;;10961881;26;20006;-59
2024/04/19 17:45:34;;;;;;;6.00;1.15;;;;;;;;;;10972416;26;20006;-59
2024/04/19 17:50:36;;;;;;;2.40;1.30;;;;;;;;;;10937264;26;20025;-58
2024/04/19 17:55:37;;;;;;;5.45;1.63;;;;;;;;;;10898408;27;20438;-58
2024/04/19 18:00:41;;;;;;;5.05;1.48;;;;;;;;;;10913044;27;20013;-58
2024/04/19 18:05:42;;;;;;;11.50;1.30;;;;;;;;;;10917919;27;20009;-58
2024/04/19 18:10:44;;;;;;;10.98;1.20;;;;;;;;;;10885497;27;20071;-58
2024/04/19 18:15:46;;;;;;;3.45;1.10;;;;;;;;;;10910930;27;20018;-58
2024/04/19 18:20:48;;;;;;;6.78;1.40;;;;;;;;;;10907165;27;20367;-58
2024/04/19 18:25:50;;;;;;;5.07;1.50;;;;;;;;;;10898948;27;20123;-58
2024/04/19 18:30:51;;;;;;;6.32;1.42;;;;;;;;;;10914601;27;20346;-58
2024/04/19 18:35:54;;;;;;;7.47;1.25;;;;;;;;;;10904176;27;19998;-58
2024/04/19 18:40:56;;;;;;;10.32;1.50;;;;;;;;;;10870087;27;20006;-58
2024/04/19 18:45:58;;;;;;;2.47;1.35;;;;;;;;;;10884408;27;20003;-58
2024/04/19 18:50:59;;;;;;;1.05;0.98;;;;;;;;;;10920988;27;20333;-59
2024/04/19 18:56:00;;;;;;;1.35;1.02;;;;;;;;;;10904593;27;20085;-58
2024/04/19 19:01:09;;;;;;;2.60;1.20;;;;;;;;;;10903945;27;20006;-57
2024/04/19 19:06:12;;;;;;;3.13;1.15;;;;;;;;;;10919510;27;20322;-58
2024/04/19 19:11:13;;;;;;;7.07;1.50;;;;;;;;;;10911779;27;20509;-58
2024/04/19 19:16:15;;;;;;;6.68;1.33;;;;;;;;;;10915508;27;20016;-58
2024/04/19 19:21:16;;;;;;;7.28;1.55;;;;;;;;;;10912881;27;20430;-58
2024/04/19 19:26:17;;;;;;;6.07;1.17;;;;;;;;;;10908382;27;20014;-58
2024/04/19 19:31:18;;;;;;;10.02;1.30;;;;;;;;;;10912034;27;20079;-60
2024/04/19 19:36:20;;;;;;;1.98;1.60;;;;;;;;;;10912010;27;20021;-59
2024/04/19 19:41:21;;;;;;;1.23;1.00;;;;;;;;;;10910071;27;20318;-59
2024/04/19 19:46:22;;;;;;;1.95;1.40;;;;;;;;;;10912429;27;20035;-60
2024/04/19 19:51:23;;;;;;;22.77;1.75;;;;;;;;;;10909462;27;20552;-62
2024/04/19 19:56:24;;;;;;;9.65;1.83;;;;;;;;;;10909016;27;20438;-64
2024/04/19 20:06:45;;;;;;;7.68;1.80;;;;;;;;;;10897117;27;20042;-61
2024/04/19 20:11:48;;;;;;;4.60;1.83;;;;;;;;;;10905611;27;20049;-61
2024/04/19 20:16:49;;;;;;;5.55;1.50;;;;;;;;;;10912229;27;19994;-61
2024/04/19 20:21:51;;;;;;;3.60;1.58;;;;;;;;;;10913164;27;20010;-60
2024/04/19 20:26:52;;;;;;;5.53;1.70;;;;;;;;;;10897466;27;20006;-61
2024/04/19 20:31:53;;;;;;;3.42;1.77;;;;;;;;;;10907047;27;20006;-61
2024/04/19 20:36:54;;;;;;;7.00;1.60;;;;;;;;;;10910583;27;20006;-60
2024/04/19 20:41:55;;;;;;;3.63;1.60;;;;;;;;;;10907831;27;20015;-60
2024/04/19 20:46:56;;;;;;;5.07;1.60;;;;;;;;;;10913120;27;20046;-60
2024/04/19 20:51:58;;;;;;;20.17;1.60;;;;;;;;;;10913187;27;20421;-60
2024/04/19 20:57:00;;;;;;;11.10;1.88;;;;;;;;;;10913066;27;20089;-61
2024/04/19 21:02:02;;;;;;;20.58;2.22;;;;;;;;;;10910954;27;20010;-65
2024/04/19 21:07:03;;;;;;;14.98;2.47;;;;;;;;;;10895231;27;20488;-63
2024/04/19 21:12:05;;;;;;;5.50;2.10;;;;;;;;;;10911973;27;20010;-64
2024/04/19 21:17:06;;;;;;;8.55;2.17;;;;;;;;;;10911280;27;20006;-64
2024/04/19 21:22:07;;;;;;;4.53;2.25;;;;;;;;;;10905954;27;20010;-63
2024/04/19 21:27:09;;;;;;;9.05;2.17;;;;;;;;;;10907509;27;21763;-63
2024/04/19 21:32:10;;;;;;;4.85;2.03;;;;;;;;;;10917620;27;20012;-63
2024/04/19 21:37:12;;;;;;;10.05;2.17;;;;;;;;;;10908524;27;20077;-64
2024/04/19 21:42:14;;;;;;;8.45;1.83;;;;;;;;;;10921577;27;20013;-64
2024/04/19 21:47:15;;;;;;;3.53;1.85;;;;;;;;;;10916043;27;20031;-64
2024/04/19 21:52:16;;;;;;;5.88;1.77;;;;;;;;;;10910033;27;20014;-63
2024/04/19 21:57:18;;;;;;;6.97;2.05;;;;;;;;;;10953861;22;20454;-64
2024/04/19 22:02:19;;;;;;;5.53;2.10;;;;;;;;;;10932589;27;20014;-62
2024/04/19 22:07:20;;;;;;;9.45;2.20;;;;;;;;;;10885641;27;20002;-62
2024/04/19 22:12:21;;;;;;;10.23;2.33;;;;;;;;;;10916150;27;20113;-62
2024/04/19 22:17:26;;;;;;;20.95;2.83;;;;;;;;;;10919804;27;20013;-63
2024/04/19 22:22:27;;;;;;;3.55;1.80;;;;;;;;;;10877335;27;20008;-63
2024/04/19 22:27:29;;;;;;;4.75;2.22;;;;;;;;;;10914458;27;20009;-64
2024/04/19 22:32:30;;;;;;;3.97;2.25;;;;;;;;;;10920384;27;20095;-64
2024/04/19 22:37:31;;;;;;;9.82;2.33;;;;;;;;;;10922079;27;20076;-63
2024/04/19 22:42:32;;;;;;;5.65;2.10;;;;;;;;;;10884908;27;20041;-63
2024/04/19 22:47:34;;;;;;;7.10;2.53;;;;;;;;;;10857120;27;20002;-63
2024/04/19 22:52:35;;;;;;;5.68;2.05;;;;;;;;;;10906645;27;20357;-63
2024/04/19 22:57:36;;;;;;;2.95;2.00;;;;;;;;;;10907069;27;20018;-63
2024/04/19 23:02:37;;;;;;;7.07;2.10;;;;;;;;;;10886917;27;20054;-63
2024/04/19 23:07:39;;;;;;;5.57;1.95;;;;;;;;;;10920010;27;20446;-63
2024/04/19 23:12:40;;;;;;;3.28;2.05;;;;;;;;;;10918904;27;20095;-63
2024/04/19 23:17:41;;;;;;;2.25;2.05;;;;;;;;;;10919044;27;20003;-63
2024/04/19 23:22:42;;;;;;;3.90;2.10;;;;;;;;;;10910011;27;20006;-63
2024/04/19 23:27:43;;;;;;;4.88;2.40;;;;;;;;;;10917098;27;20038;-63
2024/04/19 23:32:45;;;;;;;3.95;2.10;;;;;;;;;;10908991;27;20061;-63
2024/04/19 23:37:46;;;;;;;7.05;2.28;;;;;;;;;;10913777;27;20014;-62
2024/04/19 23:42:47;;;;;;;2.60;2.03;;;;;;;;;;10899439;27;20054;-61
2024/04/19 23:47:48;;;;;;;4.43;2.03;;;;;;;;;;10897794;27;20030;-61
2024/04/19 23:52:49;;;;;;;1.85;1.67;;;;;;;;;;10900340;27;20069;-61
2024/04/19 23:57:50;;;;;;;12.52;1.92;;;;;;;;;;11035282;26;20005;-61
